sensor_id;sensor_type;location;lat;lon;timestamp;pressure;altitude;pressure_sealevel;temperature;humidity
30516;BME280;17297;54.022;10.760;2023-04-07T00:00:20;101930.16;;;8.80;46.77
30516;BME280;17297;54.022;10.760;2023-04-07T00:02:45;101930.31;;;8.78;46.61
30516;BME280;17297;54.022;10.760;2023-04-07T00:05:11;101928.91;;;8.74;46.81
30516;BME280;17297;54.022;10.760;2023-04-07T00:07:36;101938.97;;;8.72;46.80
30516;BME280;17297;54.022;10.760;2023-04-07T00:10:02;101922.19;;;8.70;46.80
30516;BME280;17297;54.022;10.760;2023-04-07T00:12:27;101928.69;;;8.68;46.58
30516;BME280;17297;54.022;10.760;2023-04-07T00:14:53;101932.38;;;8.67;46.72
30516;BME280;17297;54.022;10.760;2023-04-07T00:17:18;101924.63;;;8.64;46.61
30516;BME280;17297;54.022;10.760;2023-04-07T00:19:43;101926.63;;;8.62;46.72
30516;BME280;17297;54.022;10.760;2023-04-07T00:22:09;101925.91;;;8.60;46.77
30516;BME280;17297;54.022;10.760;2023-04-07T00:24:34;101928.75;;;8.58;46.78
30516;BME280;17297;54.022;10.760;2023-04-07T00:26:59;101928.91;;;8.56;46.70
30516;BME280;17297;54.022;10.760;2023-04-07T00:29:25;101929.75;;;8.57;46.72
30516;BME280;17297;54.022;10.760;2023-04-07T00:31:51;101930.72;;;8.56;46.91
30516;BME280;17297;54.022;10.760;2023-04-07T00:34:17;101933.59;;;8.54;46.74
30516;BME280;17297;54.022;10.760;2023-04-07T00:36:42;101930.19;;;8.52;47.11
30516;BME280;17297;54.022;10.760;2023-04-07T00:39:08;101932.34;;;8.49;47.78
30516;BME280;17297;54.022;10.760;2023-04-07T00:41:34;101932.09;;;8.42;48.08
30516;BME280;17297;54.022;10.760;2023-04-07T00:44:00;101931.66;;;8.37;48.06
30516;BME280;17297;54.022;10.760;2023-04-07T00:46:25;101947.38;;;8.32;48.24
30516;BME280;17297;54.022;10.760;2023-04-07T00:48:51;101939.75;;;8.27;48.45
30516;BME280;17297;54.022;10.760;2023-04-07T00:51:19;101936.84;;;8.21;48.76
30516;BME280;17297;54.022;10.760;2023-04-07T00:53:45;101946.19;;;8.17;48.63
30516;BME280;17297;54.022;10.760;2023-04-07T00:56:10;101948.31;;;8.13;48.81
30516;BME280;17297;54.022;10.760;2023-04-07T00:58:37;101949.56;;;8.09;48.78
30516;BME280;17297;54.022;10.760;2023-04-07T01:01:12;101949.88;;;8.06;49.01
30516;BME280;17297;54.022;10.760;2023-04-07T01:03:52;101948.19;;;8.05;48.98
30516;BME280;17297;54.022;10.760;2023-04-07T01:06:23;101950.16;;;8.03;48.70
30516;BME280;17297;54.022;10.760;2023-04-07T01:09:16;101952.00;;;8.02;48.68
30516;BME280;17297;54.022;10.760;2023-04-07T01:12:01;101938.78;;;8.01;48.70
30516;BME280;17297;54.022;10.760;2023-04-07T01:14:32;101953.00;;;8.01;48.60
30516;BME280;17297;54.022;10.760;2023-04-07T01:17:16;101940.59;;;8.00;48.57
30516;BME280;17297;54.022;10.760;2023-04-07T01:19:55;101942.59;;;7.98;48.79
30516;BME280;17297;54.022;10.760;2023-04-07T01:22:28;101948.06;;;7.97;48.88
30516;BME280;17297;54.022;10.760;2023-04-07T01:30:31;101937.25;;;7.89;48.87
30516;BME280;17297;54.022;10.760;2023-04-07T01:32:58;101944.59;;;7.86;49.04
30516;BME280;17297;54.022;10.760;2023-04-07T01:35:26;101941.06;;;7.86;48.85
30516;BME280;17297;54.022;10.760;2023-04-07T01:37:54;101942.91;;;7.85;48.97
30516;BME280;17297;54.022;10.760;2023-04-07T01:40:20;101939.53;;;7.83;48.99
30516;BME280;17297;54.022;10.760;2023-04-07T01:42:47;101943.22;;;7.82;49.07
30516;BME280;17297;54.022;10.760;2023-04-07T01:45:15;101937.13;;;7.80;49.05
30516;BME280;17297;54.022;10.760;2023-04-07T01:47:41;101933.75;;;7.78;48.97
30516;BME280;17297;54.022;10.760;2023-04-07T01:50:10;101941.94;;;7.77;49.23
30516;BME280;17297;54.022;10.760;2023-04-07T01:52:36;101944.91;;;7.74;49.03
30516;BME280;17297;54.022;10.760;2023-04-07T01:55:03;101946.03;;;7.71;49.07
30516;BME280;17297;54.022;10.760;2023-04-07T01:57:31;101945.19;;;7.71;49.28
30516;BME280;17297;54.022;10.760;2023-04-07T02:00:01;101951.69;;;7.68;49.12
30516;BME280;17297;54.022;10.760;2023-04-07T02:02:43;101950.13;;;7.66;49.04
30516;BME280;17297;54.022;10.760;2023-04-07T02:05:11;101952.13;;;7.63;49.32
30516;BME280;17297;54.022;10.760;2023-04-07T02:07:39;101954.94;;;7.62;49.25
30516;BME280;17297;54.022;10.760;2023-04-07T02:10:09;101947.34;;;7.57;49.50
30516;BME280;17297;54.022;10.760;2023-04-07T02:12:36;101950.16;;;7.56;49.40
30516;BME280;17297;54.022;10.760;2023-04-07T02:15:11;101947.66;;;7.54;49.27
30516;BME280;17297;54.022;10.760;2023-04-07T02:17:39;101947.78;;;7.53;49.56
30516;BME280;17297;54.022;10.760;2023-04-07T02:20:07;101951.28;;;7.53;49.63
30516;BME280;17297;54.022;10.760;2023-04-07T02:22:37;101949.44;;;7.54;49.48
30516;BME280;17297;54.022;10.760;2023-04-07T02:25:23;101949.44;;;7.54;49.40
30516;BME280;17297;54.022;10.760;2023-04-07T02:27:49;101952.00;;;7.55;49.46
30516;BME280;17297;54.022;10.760;2023-04-07T02:30:15;101943.13;;;7.55;49.47
30516;BME280;17297;54.022;10.760;2023-04-07T02:32:40;101951.16;;;7.55;49.32
30516;BME280;17297;54.022;10.760;2023-04-07T02:35:06;101946.09;;;7.52;49.53
30516;BME280;17297;54.022;10.760;2023-04-07T02:37:33;101950.72;;;7.50;49.57
30516;BME280;17297;54.022;10.760;2023-04-07T02:40:00;101958.94;;;7.48;49.36
30516;BME280;17297;54.022;10.760;2023-04-07T02:42:25;101957.38;;;7.46;49.66
30516;BME280;17297;54.022;10.760;2023-04-07T02:44:50;101966.41;;;7.45;49.96
30516;BME280;17297;54.022;10.760;2023-04-07T02:47:16;101958.50;;;7.43;50.36
30516;BME280;17297;54.022;10.760;2023-04-07T02:49:41;101966.81;;;7.40;50.16
30516;BME280;17297;54.022;10.760;2023-04-07T02:52:07;101965.25;;;7.37;50.21
30516;BME280;17297;54.022;10.760;2023-04-07T02:54:32;101974.28;;;7.36;50.15
30516;BME280;17297;54.022;10.760;2023-04-07T02:56:58;101961.03;;;7.35;50.29
30516;BME280;17297;54.022;10.760;2023-04-07T02:59:24;101975.28;;;7.35;50.54
30516;BME280;17297;54.022;10.760;2023-04-07T03:01:49;101977.09;;;7.35;51.08
30516;BME280;17297;54.022;10.760;2023-04-07T03:04:16;101970.22;;;7.32;51.32
30516;BME280;17297;54.022;10.760;2023-04-07T03:06:42;101961.47;;;7.30;51.48
30516;BME280;17297;54.022;10.760;2023-04-07T03:09:13;101960.75;;;7.28;51.26
30516;BME280;17297;54.022;10.760;2023-04-07T03:11:39;101956.97;;;7.31;51.17
30516;BME280;17297;54.022;10.760;2023-04-07T03:14:06;101958.81;;;7.30;51.23
30516;BME280;17297;54.022;10.760;2023-04-07T03:16:34;101963.31;;;7.30;51.37
30516;BME280;17297;54.022;10.760;2023-04-07T03:19:05;101967.25;;;7.26;51.55
30516;BME280;17297;54.022;10.760;2023-04-07T03:21:35;101969.22;;;7.24;51.87
30516;BME280;17297;54.022;10.760;2023-04-07T03:24:01;101963.31;;;7.20;51.67
30516;BME280;17297;54.022;10.760;2023-04-07T03:26:27;101953.88;;;7.16;51.94
30516;BME280;17297;54.022;10.760;2023-04-07T03:28:52;101960.22;;;7.15;51.85
30516;BME280;17297;54.022;10.760;2023-04-07T03:31:19;101964.84;;;7.13;51.76
30516;BME280;17297;54.022;10.760;2023-04-07T03:33:45;101960.50;;;7.12;51.62
30516;BME280;17297;54.022;10.760;2023-04-07T03:36:10;101971.19;;;7.12;51.54
30516;BME280;17297;54.022;10.760;2023-04-07T03:38:36;101964.16;;;7.11;51.38
30516;BME280;17297;54.022;10.760;2023-04-07T03:41:03;101970.47;;;7.10;51.22
30516;BME280;17297;54.022;10.760;2023-04-07T03:43:28;101973.44;;;7.07;51.15
30516;BME280;17297;54.022;10.760;2023-04-07T03:45:54;101974.59;;;7.04;51.12
30516;BME280;17297;54.022;10.760;2023-04-07T03:48:21;101975.72;;;7.02;51.08
30516;BME280;17297;54.022;10.760;2023-04-07T03:50:56;101975.44;;;7.05;50.81
30516;BME280;17297;54.022;10.760;2023-04-07T03:53:21;101977.53;;;7.01;50.89
30516;BME280;17297;54.022;10.760;2023-04-07T03:55:48;101974.72;;;6.93;51.10
30516;BME280;17297;54.022;10.760;2023-04-07T03:58:26;101974.97;;;6.90;51.24
30516;BME280;17297;54.022;10.760;2023-04-07T04:00:51;101975.97;;;6.89;51.34
30516;BME280;17297;54.022;10.760;2023-04-07T04:03:17;101977.78;;;6.88;51.27
30516;BME280;17297;54.022;10.760;2023-04-07T04:05:52;101987.66;;;6.88;51.49
30516;BME280;17297;54.022;10.760;2023-04-07T04:08:24;101987.78;;;6.86;51.37
30516;BME280;17297;54.022;10.760;2023-04-07T04:10:49;101986.97;;;6.86;51.50
30516;BME280;17297;54.022;10.760;2023-04-07T04:13:15;101984.28;;;6.86;51.38
30516;BME280;17297;54.022;10.760;2023-04-07T04:15:41;101987.66;;;6.88;51.51
30516;BME280;17297;54.022;10.760;2023-04-07T04:18:12;101986.69;;;6.89;51.39
30516;BME280;17297;54.022;10.760;2023-04-07T04:20:38;101992.03;;;6.89;51.53
30516;BME280;17297;54.022;10.760;2023-04-07T04:23:04;101992.72;;;6.91;51.43
30516;BME280;17297;54.022;10.760;2023-04-07T04:25:31;101997.09;;;6.92;51.16
30516;BME280;17297;54.022;10.760;2023-04-07T04:27:57;102005.81;;;6.94;51.30
30516;BME280;17297;54.022;10.760;2023-04-07T04:30:26;101999.50;;;6.95;51.05
30516;BME280;17297;54.022;10.760;2023-04-07T04:33:00;102001.31;;;6.94;51.15
30516;BME280;17297;54.022;10.760;2023-04-07T04:35:48;102004.84;;;6.95;50.92
30516;BME280;17297;54.022;10.760;2023-04-07T04:38:18;102009.31;;;6.94;51.00
30516;BME280;17297;54.022;10.760;2023-04-07T04:40:50;102007.53;;;6.95;50.77
30516;BME280;17297;54.022;10.760;2023-04-07T04:43:19;102008.38;;;6.96;50.88
30516;BME280;17297;54.022;10.760;2023-04-07T04:45:44;102000.06;;;6.99;50.71
30516;BME280;17297;54.022;10.760;2023-04-07T04:48:11;102012.03;;;7.04;50.44
30516;BME280;17297;54.022;10.760;2023-04-07T04:50:37;102015.84;;;7.11;50.52
30516;BME280;17297;54.022;10.760;2023-04-07T04:53:08;102009.78;;;7.19;50.69
30516;BME280;17297;54.022;10.760;2023-04-07T04:55:38;102023.59;;;7.24;50.73
30516;BME280;17297;54.022;10.760;2023-04-07T04:58:05;102022.75;;;7.24;50.46
30516;BME280;17297;54.022;10.760;2023-04-07T05:00:43;102022.75;;;7.24;50.43
30516;BME280;17297;54.022;10.760;2023-04-07T05:03:08;102022.75;;;7.24;50.57
30516;BME280;17297;54.022;10.760;2023-04-07T05:05:37;102023.44;;;7.26;50.95
30516;BME280;17297;54.022;10.760;2023-04-07T05:08:04;102027.56;;;7.30;50.95
30516;BME280;17297;54.022;10.760;2023-04-07T05:10:37;102035.31;;;7.33;51.24
30516;BME280;17297;54.022;10.760;2023-04-07T05:13:05;102038.09;;;7.41;51.46
30516;BME280;17297;54.022;10.760;2023-04-07T05:15:30;102034.31;;;7.53;51.58
30516;BME280;17297;54.022;10.760;2023-04-07T05:17:56;102043.59;;;7.69;51.66
30516;BME280;17297;54.022;10.760;2023-04-07T05:20:25;102039.78;;;7.71;51.66
30516;BME280;17297;54.022;10.760;2023-04-07T05:22:50;102048.00;;;7.70;51.80
30516;BME280;17297;54.022;10.760;2023-04-07T05:25:18;102048.94;;;7.69;51.46
30516;BME280;17297;54.022;10.760;2023-04-07T05:27:46;102047.28;;;7.68;51.48
30516;BME280;17297;54.022;10.760;2023-04-07T05:30:14;102049.53;;;7.82;51.54
30516;BME280;17297;54.022;10.760;2023-04-07T05:32:40;102058.38;;;7.92;51.69
30516;BME280;17297;54.022;10.760;2023-04-07T05:35:14;102056.66;;;7.91;51.56
30516;BME280;17297;54.022;10.760;2023-04-07T05:37:47;102075.72;;;7.88;51.88
30516;BME280;17297;54.022;10.760;2023-04-07T05:40:12;102068.13;;;7.83;51.56
30516;BME280;17297;54.022;10.760;2023-04-07T05:42:38;102067.84;;;7.77;51.54
30516;BME280;17297;54.022;10.760;2023-04-07T05:45:04;102070.09;;;7.81;52.05
30516;BME280;17297;54.022;10.760;2023-04-07T05:47:31;102073.88;;;7.98;51.99
30516;BME280;17297;54.022;10.760;2023-04-07T05:49:56;102074.56;;;8.10;51.74
30516;BME280;17297;54.022;10.760;2023-04-07T05:52:22;102069.28;;;8.28;51.41
30516;BME280;17297;54.022;10.760;2023-04-07T05:54:53;102075.16;;;8.61;51.22
30516;BME280;17297;54.022;10.760;2023-04-07T05:57:21;102082.25;;;8.79;50.68
30516;BME280;17297;54.022;10.760;2023-04-07T05:59:48;102083.50;;;8.85;50.78
30516;BME280;17297;54.022;10.760;2023-04-07T06:02:15;102084.66;;;8.83;50.74
30516;BME280;17297;54.022;10.760;2023-04-07T06:04:43;102087.03;;;8.86;50.71
30516;BME280;17297;54.022;10.760;2023-04-07T06:07:13;102075.78;;;9.00;50.32
30516;BME280;17297;54.022;10.760;2023-04-07T06:09:41;102078.06;;;9.22;49.98
30516;BME280;17297;54.022;10.760;2023-04-07T06:12:08;102084.03;;;9.34;50.18
30516;BME280;17297;54.022;10.760;2023-04-07T06:14:34;102081.75;;;9.39;49.17
30516;BME280;17297;54.022;10.760;2023-04-07T06:17:00;102101.53;;;9.20;49.10
30516;BME280;17297;54.022;10.760;2023-04-07T06:19:43;102091.09;;;9.17;49.67
30516;BME280;17297;54.022;10.760;2023-04-07T06:22:08;102089.94;;;9.20;49.49
30516;BME280;17297;54.022;10.760;2023-04-07T06:24:33;102095.22;;;9.12;49.64
30516;BME280;17297;54.022;10.760;2023-04-07T06:26:59;102100.22;;;9.24;50.04
30516;BME280;17297;54.022;10.760;2023-04-07T06:29:25;102099.09;;;9.45;50.28
30516;BME280;17297;54.022;10.760;2023-04-07T06:31:52;102102.25;;;9.76;49.99
30516;BME280;17297;54.022;10.760;2023-04-07T06:34:17;102104.06;;;9.93;49.74
30516;BME280;17297;54.022;10.760;2023-04-07T06:36:43;102108.66;;;10.01;49.55
30516;BME280;17297;54.022;10.760;2023-04-07T06:39:08;102110.94;;;10.14;49.95
30516;BME280;17297;54.022;10.760;2023-04-07T06:41:34;102108.00;;;10.25;49.44
30516;BME280;17297;54.022;10.760;2023-04-07T06:43:59;102116.38;;;10.22;49.67
30516;BME280;17297;54.022;10.760;2023-04-07T06:46:24;102114.53;;;10.23;49.89
30516;BME280;17297;54.022;10.760;2023-04-07T06:48:51;102119.31;;;10.29;50.21
30516;BME280;17297;54.022;10.760;2023-04-07T06:51:16;102111.41;;;10.27;50.61
30516;BME280;17297;54.022;10.760;2023-04-07T06:53:41;102125.09;;;10.16;50.50
30516;BME280;17297;54.022;10.760;2023-04-07T06:56:09;102125.00;;;10.08;51.04
30516;BME280;17297;54.022;10.760;2023-04-07T06:58:36;102124.69;;;10.11;51.23
30516;BME280;17297;54.022;10.760;2023-04-07T07:01:02;102113.41;;;10.07;51.53
30516;BME280;17297;54.022;10.760;2023-04-07T07:03:28;102119.00;;;10.14;51.37
30516;BME280;17297;54.022;10.760;2023-04-07T07:05:54;102117.53;;;10.20;51.20
30516;BME280;17297;54.022;10.760;2023-04-07T07:08:23;102121.44;;;10.25;50.98
30516;BME280;17297;54.022;10.760;2023-04-07T07:10:49;102131.63;;;10.31;50.80
30516;BME280;17297;54.022;10.760;2023-04-07T07:13:14;102125.75;;;10.36;50.61
30516;BME280;17297;54.022;10.760;2023-04-07T07:15:40;102133.19;;;10.42;50.73
30516;BME280;17297;54.022;10.760;2023-04-07T07:18:05;102137.19;;;10.38;50.51
30516;BME280;17297;54.022;10.760;2023-04-07T07:20:30;102133.13;;;10.34;50.74
30516;BME280;17297;54.022;10.760;2023-04-07T07:22:58;102138.19;;;10.37;50.96
30516;BME280;17297;54.022;10.760;2023-04-07T07:25:24;102138.44;;;10.44;50.86
30516;BME280;17297;54.022;10.760;2023-04-07T07:27:51;102138.63;;;10.50;50.65
30516;BME280;17297;54.022;10.760;2023-04-07T07:30:21;102146.31;;;10.45;50.30
30516;BME280;17297;54.022;10.760;2023-04-07T07:32:47;102152.00;;;10.42;50.32
30516;BME280;17297;54.022;10.760;2023-04-07T07:35:13;102139.91;;;10.38;50.10
30516;BME280;17297;54.022;10.760;2023-04-07T07:37:39;102143.22;;;10.32;50.18
30516;BME280;17297;54.022;10.760;2023-04-07T07:40:04;102153.03;;;10.23;50.05
30516;BME280;17297;54.022;10.760;2023-04-07T07:42:30;102149.81;;;10.02;50.23
30516;BME280;17297;54.022;10.760;2023-04-07T07:44:57;102145.00;;;9.69;50.81
30516;BME280;17297;54.022;10.760;2023-04-07T07:47:22;102167.38;;;9.42;51.11
30516;BME280;17297;54.022;10.760;2023-04-07T07:49:47;102165.13;;;9.20;51.66
30516;BME280;17297;54.022;10.760;2023-04-07T07:52:13;102168.34;;;8.96;51.79
30516;BME280;17297;54.022;10.760;2023-04-07T07:54:41;102171.38;;;8.73;52.12
30516;BME280;17297;54.022;10.760;2023-04-07T07:57:06;102179.59;;;8.62;52.42
30516;BME280;17297;54.022;10.760;2023-04-07T07:59:32;102177.50;;;8.56;52.86
30516;BME280;17297;54.022;10.760;2023-04-07T08:01:57;102181.19;;;8.55;53.41
30516;BME280;17297;54.022;10.760;2023-04-07T08:04:22;102180.38;;;8.45;54.56
30516;BME280;17297;54.022;10.760;2023-04-07T08:06:50;102186.97;;;8.41;55.66
30516;BME280;17297;54.022;10.760;2023-04-07T08:09:19;102187.97;;;8.30;56.13
30516;BME280;17297;54.022;10.760;2023-04-07T08:11:56;102198.13;;;8.26;56.13
30516;BME280;17297;54.022;10.760;2023-04-07T08:14:34;102199.81;;;8.18;56.66
30516;BME280;17297;54.022;10.760;2023-04-07T08:20:04;102196.59;;;8.04;57.37
30516;BME280;17297;54.022;10.760;2023-04-07T08:26:12;102194.75;;;7.85;57.95
30516;BME280;17297;54.022;10.760;2023-04-07T08:28:51;102200.13;;;7.85;58.19
30516;BME280;17297;54.022;10.760;2023-04-07T08:31:27;102202.34;;;7.80;58.31
30516;BME280;17297;54.022;10.760;2023-04-07T08:33:52;102200.22;;;7.74;58.28
30516;BME280;17297;54.022;10.760;2023-04-07T08:36:26;102201.63;;;7.78;58.34
30516;BME280;17297;54.022;10.760;2023-04-07T08:38:52;102207.28;;;7.75;58.14
30516;BME280;17297;54.022;10.760;2023-04-07T08:41:25;102198.28;;;7.76;58.89
30516;BME280;17297;54.022;10.760;2023-04-07T08:43:52;102211.94;;;7.73;58.66
30516;BME280;17297;54.022;10.760;2023-04-07T08:46:20;102218.00;;;7.75;59.27
30516;BME280;17297;54.022;10.760;2023-04-07T08:51:30;102210.81;;;7.76;59.62
30516;BME280;17297;54.022;10.760;2023-04-07T08:54:34;102222.38;;;7.76;60.46
30516;BME280;17297;54.022;10.760;2023-04-07T08:57:13;102222.09;;;7.79;59.97
30516;BME280;17297;54.022;10.760;2023-04-07T08:59:40;102222.78;;;7.81;60.13
30516;BME280;17297;54.022;10.760;2023-04-07T09:02:08;102224.78;;;7.79;60.17
30516;BME280;17297;54.022;10.760;2023-04-07T09:04:34;102228.03;;;7.83;60.27
30516;BME280;17297;54.022;10.760;2023-04-07T09:06:59;102223.38;;;7.85;60.00
30516;BME280;17297;54.022;10.760;2023-04-07T09:09:26;102218.16;;;7.83;60.09
30516;BME280;17297;54.022;10.760;2023-04-07T09:11:51;102211.38;;;7.79;60.38
30516;BME280;17297;54.022;10.760;2023-04-07T09:14:17;102217.31;;;7.73;61.16
30516;BME280;17297;54.022;10.760;2023-04-07T09:16:45;102224.50;;;7.82;60.83
30516;BME280;17297;54.022;10.760;2023-04-07T09:19:11;102212.22;;;7.80;61.29
30516;BME280;17297;54.022;10.760;2023-04-07T09:26:46;102218.72;;;7.87;61.83
30516;BME280;17297;54.022;10.760;2023-04-07T09:29:17;102221.56;;;7.95;62.26
30516;BME280;17297;54.022;10.760;2023-04-07T09:31:49;102208.72;;;7.79;62.54
30516;BME280;17297;54.022;10.760;2023-04-07T09:34:30;102226.75;;;7.87;63.00
30516;BME280;17297;54.022;10.760;2023-04-07T09:36:56;102209.00;;;7.96;62.38
30516;BME280;17297;54.022;10.760;2023-04-07T09:39:22;102218.16;;;7.93;62.05
30516;BME280;17297;54.022;10.760;2023-04-07T09:41:48;102211.41;;;7.99;61.71
30516;BME280;17297;54.022;10.760;2023-04-07T09:44:13;102213.50;;;7.95;61.95
30516;BME280;17297;54.022;10.760;2023-04-07T09:49:18;102209.00;;;7.86;62.59
30516;BME280;17297;54.022;10.760;2023-04-07T09:51:57;102212.53;;;7.96;62.65
30516;BME280;17297;54.022;10.760;2023-04-07T09:54:37;102212.34;;;7.88;62.37
30516;BME280;17297;54.022;10.760;2023-04-07T09:57:07;102213.50;;;7.95;62.22
30516;BME280;17297;54.022;10.760;2023-04-07T09:59:34;102205.31;;;7.97;61.94
30516;BME280;17297;54.022;10.760;2023-04-07T10:02:01;102211.97;;;7.93;62.18
30516;BME280;17297;54.022;10.760;2023-04-07T10:04:27;102201.69;;;7.98;62.19
30516;BME280;17297;54.022;10.760;2023-04-07T10:06:57;102196.16;;;7.90;62.45
30516;BME280;17297;54.022;10.760;2023-04-07T10:09:24;102209.13;;;7.94;62.08
30516;BME280;17297;54.022;10.760;2023-04-07T10:11:51;102200.81;;;7.97;62.30
30516;BME280;17297;54.022;10.760;2023-04-07T10:14:21;102215.91;;;7.89;62.41
30516;BME280;17297;54.022;10.760;2023-04-07T10:16:47;102200.66;;;7.79;62.56
30516;BME280;17297;54.022;10.760;2023-04-07T10:19:13;102214.91;;;7.80;62.67
30516;BME280;17297;54.022;10.760;2023-04-07T10:21:40;102210.97;;;7.84;62.72
30516;BME280;17297;54.022;10.760;2023-04-07T10:27:16;102209.13;;;7.84;62.69
30516;BME280;17297;54.022;10.760;2023-04-07T10:29:45;102217.59;;;7.90;62.91
30516;BME280;17297;54.022;10.760;2023-04-07T10:32:13;102215.03;;;7.88;62.79
30516;BME280;17297;54.022;10.760;2023-04-07T10:37:20;102218.16;;;7.83;63.14
30516;BME280;17297;54.022;10.760;2023-04-07T10:40:35;102217.16;;;7.84;63.28
30516;BME280;17297;54.022;10.760;2023-04-07T10:45:01;102216.03;;;7.97;63.00
30516;BME280;17297;54.022;10.760;2023-04-07T10:47:26;102220.28;;;7.99;62.78
30516;BME280;17297;54.022;10.760;2023-04-07T10:50:15;102234.69;;;8.08;62.67
30516;BME280;17297;54.022;10.760;2023-04-07T10:52:41;102223.41;;;8.04;62.00
30516;BME280;17297;54.022;10.760;2023-04-07T10:58:13;102221.28;;;8.18;62.50
30516;BME280;17297;54.022;10.760;2023-04-07T11:00:39;102222.97;;;8.09;62.48
30516;BME280;17297;54.022;10.760;2023-04-07T11:03:11;102224.09;;;8.16;62.52
30516;BME280;17297;54.022;10.760;2023-04-07T11:05:41;102214.91;;;8.28;62.62
30516;BME280;17297;54.022;10.760;2023-04-07T11:08:07;102221.84;;;8.21;61.95
30516;BME280;17297;54.022;10.760;2023-04-07T11:10:35;102223.94;;;8.27;62.08
30516;BME280;17297;54.022;10.760;2023-04-07T11:13:10;102223.66;;;8.21;62.17
30516;BME280;17297;54.022;10.760;2023-04-07T11:15:36;102227.75;;;8.15;61.84
30516;BME280;17297;54.022;10.760;2023-04-07T11:18:05;102222.13;;;8.18;61.59
30516;BME280;17297;54.022;10.760;2023-04-07T11:21:04;102219.59;;;8.07;62.11
30516;BME280;17297;54.022;10.760;2023-04-07T11:23:44;102221.00;;;8.01;62.32
30516;BME280;17297;54.022;10.760;2023-04-07T11:26:11;102217.31;;;8.02;62.17
30516;BME280;17297;54.022;10.760;2023-04-07T11:28:50;102220.56;;;8.06;62.20
30516;BME280;17297;54.022;10.760;2023-04-07T11:31:24;102227.31;;;7.91;62.90
30516;BME280;17297;54.022;10.760;2023-04-07T11:33:57;102221.41;;;7.87;62.69
30516;BME280;17297;54.022;10.760;2023-04-07T11:38:59;102224.06;;;7.87;62.60
30516;BME280;17297;54.022;10.760;2023-04-07T11:41:27;102223.78;;;7.90;62.48
30516;BME280;17297;54.022;10.760;2023-04-07T11:44:11;102223.66;;;7.82;63.36
30516;BME280;17297;54.022;10.760;2023-04-07T11:46:57;102222.38;;;7.76;63.04
30516;BME280;17297;54.022;10.760;2023-04-07T11:49:24;102219.16;;;7.82;62.75
30516;BME280;17297;54.022;10.760;2023-04-07T11:51:59;102230.16;;;7.89;62.67
30516;BME280;17297;54.022;10.760;2023-04-07T11:54:25;102228.03;;;7.93;63.14
30516;BME280;17297;54.022;10.760;2023-04-07T11:56:50;102232.28;;;8.05;63.08
30516;BME280;17297;54.022;10.760;2023-04-07T11:59:21;102226.06;;;7.95;62.85
30516;BME280;17297;54.022;10.760;2023-04-07T12:01:48;102232.00;;;8.08;62.56
30516;BME280;17297;54.022;10.760;2023-04-07T12:04:14;102224.09;;;8.16;62.75
30516;BME280;17297;54.022;10.760;2023-04-07T12:06:43;102235.13;;;8.23;62.75
30516;BME280;17297;54.022;10.760;2023-04-07T12:09:24;102240.47;;;8.23;62.13
30516;BME280;17297;54.022;10.760;2023-04-07T12:11:51;102234.53;;;8.19;62.19
30516;BME280;17297;54.022;10.760;2023-04-07T12:14:17;102235.41;;;8.10;62.45
30516;BME280;17297;54.022;10.760;2023-04-07T12:16:42;102229.31;;;8.18;62.22
30516;BME280;17297;54.022;10.760;2023-04-07T12:19:09;102229.47;;;8.16;62.50
30516;BME280;17297;54.022;10.760;2023-04-07T12:21:34;102242.44;;;8.21;62.26
30516;BME280;17297;54.022;10.760;2023-04-07T12:23:59;102246.97;;;8.20;62.51
30516;BME280;17297;54.022;10.760;2023-04-07T12:26:26;102243.44;;;8.10;62.78
30516;BME280;17297;54.022;10.760;2023-04-07T12:28:51;102239.03;;;7.99;63.17
30516;BME280;17297;54.022;10.760;2023-04-07T12:31:16;102231.00;;;8.09;63.18
30516;BME280;17297;54.022;10.760;2023-04-07T12:33:42;102239.88;;;7.90;63.33
30516;BME280;17297;54.022;10.760;2023-04-07T12:36:07;102246.63;;;7.94;62.86
30516;BME280;17297;54.022;10.760;2023-04-07T12:38:32;102244.13;;;7.93;62.81
30516;BME280;17297;54.022;10.760;2023-04-07T12:40:58;102237.34;;;7.98;62.78
30516;BME280;17297;54.022;10.760;2023-04-07T12:43:28;102237.47;;;7.87;63.36
30516;BME280;17297;54.022;10.760;2023-04-07T12:45:54;102241.56;;;7.91;63.63
30516;BME280;17297;54.022;10.760;2023-04-07T12:48:19;102244.63;;;7.67;64.34
30516;BME280;17297;54.022;10.760;2023-04-07T12:50:45;102239.38;;;7.56;64.48
30516;BME280;17297;54.022;10.760;2023-04-07T12:53:10;102244.63;;;7.57;64.50
30516;BME280;17297;54.022;10.760;2023-04-07T12:55:36;102249.28;;;7.65;64.66
30516;BME280;17297;54.022;10.760;2023-04-07T12:58:02;102246.59;;;7.65;64.93
30516;BME280;17297;54.022;10.760;2023-04-07T13:00:27;102249.00;;;7.68;64.69
30516;BME280;17297;54.022;10.760;2023-04-07T13:02:52;102243.53;;;7.70;64.49
30516;BME280;17297;54.022;10.760;2023-04-07T13:05:18;102253.09;;;7.72;64.83
30516;BME280;17297;54.022;10.760;2023-04-07T13:07:44;102254.94;;;7.72;64.94
30516;BME280;17297;54.022;10.760;2023-04-07T13:10:09;102252.25;;;7.72;65.33
30516;BME280;17297;54.022;10.760;2023-04-07T13:12:35;102247.16;;;7.69;65.54
30516;BME280;17297;54.022;10.760;2023-04-07T13:15:01;102244.19;;;7.62;65.69
30516;BME280;17297;54.022;10.760;2023-04-07T13:17:27;102257.84;;;7.59;65.76
30516;BME280;17297;54.022;10.760;2023-04-07T13:19:53;102250.66;;;7.59;65.67
30516;BME280;17297;54.022;10.760;2023-04-07T13:22:18;102253.59;;;7.47;66.41
30516;BME280;17297;54.022;10.760;2023-04-07T13:24:44;102257.72;;;7.51;66.83
30516;BME280;17297;54.022;10.760;2023-04-07T13:27:09;102255.31;;;7.48;66.69
30516;BME280;17297;54.022;10.760;2023-04-07T13:29:35;102245.97;;;7.42;66.91
30516;BME280;17297;54.022;10.760;2023-04-07T13:32:07;102255.41;;;7.36;67.52